createdAt,value
2022-09-22T20:08:32.378Z,28.70
2022-09-22T20:12:01.352Z,31.40
2022-09-22T20:18:53.419Z,33.50
2022-09-22T20:22:25.326Z,38.90
2022-09-22T20:25:53.219Z,44.40
2022-09-22T20:29:20.994Z,48.70
2022-09-22T20:32:47.996Z,42.30
2022-09-22T20:36:15.355Z,41.00
2022-09-22T20:39:43.060Z,35.70
2022-09-22T20:43:11.960Z,45.50
2022-09-22T20:46:41.224Z,64.10
2022-09-22T20:50:11.966Z,61.80
2022-09-22T20:53:40.544Z,59.20
2022-09-22T20:57:07.992Z,60.20
2022-09-22T21:00:35.114Z,57.40
2022-09-22T21:04:02.629Z,58.70
2022-09-22T21:07:32.081Z,62.50
2022-09-22T21:10:58.989Z,61.20
2022-09-22T21:14:26.323Z,49.70
2022-09-22T21:17:53.885Z,52.30
2022-09-22T21:21:22.893Z,47.90
2022-09-22T21:24:50.086Z,45.30
2022-09-22T21:28:17.057Z,39.80
2022-09-22T21:31:43.869Z,40.00
2022-09-22T21:35:16.620Z,61.60
2022-09-22T21:38:45.293Z,46.90
2022-09-22T21:42:12.177Z,59.70
2022-09-22T21:45:38.934Z,70.00
2022-09-22T21:49:06.884Z,63.10
2022-09-22T21:52:33.780Z,65.20
2022-09-22T21:56:03.875Z,52.90
2022-09-22T21:59:31.383Z,56.70
2022-09-22T22:03:15.564Z,57.80
2022-09-22T22:06:44.599Z,57.50
2022-09-22T22:10:13.819Z,56.70
2022-09-22T22:13:42.042Z,52.30
2022-09-22T22:17:08.904Z,52.00
2022-09-22T22:20:36.544Z,51.80
2022-09-22T22:24:19.837Z,49.10
2022-09-22T22:27:46.945Z,42.60
2022-09-22T22:31:15.559Z,40.50
2022-09-22T22:34:43.382Z,48.30
2022-09-22T22:38:10.397Z,40.50
2022-09-22T22:41:37.815Z,40.50
2022-09-22T22:45:05.388Z,44.50
2022-09-22T22:48:32.553Z,44.10
